Saint Francisville, Louisiana
Current Conditions -  °F | °C
As of 1:55 AM on Friday 19 Dec 2014 (Local Time) from KHZR Reporting Station
Haze Haze  
Wind Chill: 53°   Ceiling: 600
Heat Index: 53°   Visibility: 5mi
Dew Point: 52°   Wind: 5mph
Humidity: 97%   Direction: 40°NE
Pressure: 30.08"   Gusts: NA
Location:  30.78°N, 91.38°W
Report Text: KHZR 190755Z AUTO 04004KT 5SM BR OVC006 12/11 A3008 RMK AO2 LTG DSNT W T01180113
Loading
Personal Weather Stations






























Interactive Weather Map New forecast layout! Learn more

10-Day Weather Forecast

Advertisements
Track Severe Weather on mobile